EDT,Max TemperatureF,Mean TemperatureF,Min TemperatureF,Max Dew PointF,MeanDew PointF,Min DewpointF,Max Humidity, Mean Humidity, Min Humidity, Max Sea Level PressureIn, Mean Sea Level PressureIn, Min Sea Level PressureIn, Max VisibilityMiles, Mean VisibilityMiles, Min VisibilityMiles, Max Wind SpeedMPH, Mean Wind SpeedMPH, Max Gust SpeedMPH,PrecipitationIn, CloudCover, Events, WindDirDegrees
2012-8-1,77,68,60,66,62,55,94,82,65,30.12,30.09,30.05,10,10,1,9,6,,0.04,1,Rain-Thunderstorm,266
2012-8-2,78,70,62,66,62,55,100,76,44,30.16,30.11,30.07,10,9,5,9,5,,0.00,1,,227
2012-8-3,77,72,66,68,66,63,100,83,69,30.27,30.20,30.14,10,9,7,10,5,,0.00,1,,159
2012-8-4,75,70,64,70,67,64,100,91,78,30.37,30.32,30.26,10,8,0,13,7,18,0.36,4,Fog-Rain-Thunderstorm,173
2012-8-5,75,70,66,70,66,64,100,91,73,30.37,30.33,30.29,10,9,0,16,11,32,0.68,5,Fog-Rain-Thunderstorm,228
2012-8-6,73,68,64,68,66,64,100,97,78,30.31,30.27,30.22,10,5,0,16,9,20,0.00,6,Fog-Rain,275
2012-8-7,75,68,62,68,65,61,100,87,69,30.24,30.20,30.17,10,8,0,7,4,,0.00,2,Fog,258
2012-8-8,78,71,64,66,58,48,100,66,36,30.22,30.19,30.17,10,10,0,9,6,,0.00,1,Fog,313
2012-8-9,78,70,62,66,61,57,100,73,61,30.18,30.13,30.04,10,10,1,25,5,37,0.42,2,Rain-Thunderstorm,209
2012-8-10,71,66,60,66,62,55,100,90,73,30.04,29.97,29.94,10,9,0,22,11,24,0.07,6,Fog-Rain-Thunderstorm,240
2012-8-11,71,63,55,61,56,52,100,80,53,30.13,30.05,29.98,10,10,5,15,11,20,0.00,3,Rain-Thunderstorm,274
2012-8-12,71,62,53,57,53,50,100,76,49,30.22,30.16,30.11,10,10,10,13,8,17,0.00,2,,307
2012-8-13,73,64,55,61,56,48,88,72,60,30.22,30.18,30.14,10,10,10,10,4,,0.00,4,,190
2012-8-14,73,66,60,66,61,52,100,85,68,30.14,30.09,30.04,10,9,1,13,8,17,0.84,7,Rain-Thunderstorm,237
2012-8-15,68,64,59,63,61,57,100,93,73,30.17,30.10,30.06,10,6,0,13,5,17,0.00,5,Fog,290
2012-8-16,73,65,57,59,57,54,100,78,53,30.22,30.18,30.12,10,9,4,10,7,,0.00,1,,269
2012-8-17,71,66,60,64,59,54,100,81,64,30.15,30.08,30.03,10,10,5,16,11,18,0.21,2,Rain,267
2012-8-18,71,63,55,59,54,50,100,73,53,30.11,30.07,30.04,10,10,4,10,6,,0.00,4,,105
2012-8-19,60,56,53,57,56,54,100,96,82,30.11,30.06,30.03,10,6,0,12,5,17,1.04,6,Fog-Rain-Thunderstorm,121
2012-8-20,66,60,55,59,55,50,100,87,68,30.14,30.05,30.00,10,8,0,8,4,,0.01,5,Fog-Rain-Thunderstorm,285
2012-8-21,69,60,51,54,51,46,100,71,46,30.26,30.20,30.15,10,10,7,7,2,,0.00,2,,287
2012-8-22,71,63,55,61,56,54,100,81,53,30.32,30.28,30.24,10,10,1,8,3,,0.00,2,,136
2012-8-23,73,65,57,63,58,55,100,81,57,30.34,30.32,30.30,10,9,1,9,3,,0.00,3,Thunderstorm,137
2012-8-24,71,66,60,61,59,55,88,74,60,30.36,30.33,30.30,10,10,7,8,3,,0.00,3,,117
2012-8-25,64,60,57,59,57,54,100,87,77,30.35,30.32,30.29,10,9,5,14,3,22,0.02,5,Rain,62
2012-8-26,66,62,57,63,62,57,100,94,83,30.34,30.31,30.27,10,9,1,12,6,,0.01,8,Rain,144
2012-8-27,75,67,59,64,61,57,100,84,65,30.34,30.28,30.22,10,8,4,13,7,17,0.00,1,,209
2012-8-28,77,70,64,64,59,54,100,74,47,30.21,30.17,30.14,10,9,2,17,10,23,0.00,2,,311
2012-8-29,75,68,60,57,54,52,77,64,47,30.21,30.18,30.14,10,10,10,9,2,,0.00,2,,325
2012-8-30,75,66,57,64,61,57,100,86,61,30.31,30.26,30.20,10,9,3,9,4,,0.00,3,,117
2012-8-31,80,73,66,66,63,63,88,68,54,30.39,30.34,30.31,10,10,10,16,12,23,0.00,2,,283